Time,TemperatureF,DewpointF,PressureIn,WindDirection,WindDirectionDegrees,WindSpeedMPH,WindSpeedGustMPH,Humidity,HourlyPrecipIn,Conditions,Clouds,dailyrainin,SoftwareType,DateUTC
2013-12-12 00:01:00,68.4,64.7,30.20,North,349,1.0,4.0,88,0.00,,,0.00,WeatherCatV1.21B27,2013-12-12 05:01:00,
2013-12-12 00:02:00,68.4,64.7,30.20,NNW,333,1.0,4.0,88,0.00,,,0.00,WeatherCatV1.21B27,2013-12-12 05:02:00,
2013-12-12 00:03:00,68.4,64.7,30.20,NNW,336,1.0,5.0,88,0.00,,,0.00,WeatherCatV1.21B27,2013-12-12 05:03:00,
2013-12-12 00:08:00,68.4,64.7,30.20,NNW,334,5.0,6.0,88,0.00,,,0.00,WeatherCatV1.21B27,2013-12-12 05:08:00,
2013-12-12 00:13:00,68.4,64.7,30.20,NNW,331,0.0,6.0,88,0.00,,,0.00,WeatherCatV1.21B27,2013-12-12 05:13:00,
2013-12-12 00:18:00,68.4,64.7,30.20,NNW,344,3.0,6.0,88,0.00,,,0.00,WeatherCatV1.21B27,2013-12-12 05:18:00,
2013-12-12 00:23:00,68.4,64.7,30.19,NNW,328,0.0,6.0,88,0.00,,,0.00,WeatherCatV1.21B27,2013-12-12 05:23:00,
2013-12-12 00:28:00,68.4,64.7,30.19,NNW,333,0.0,2.0,88,0.00,,,0.00,WeatherCatV1.21B27,2013-12-12 05:28:00,
2013-12-12 00:33:00,68.5,64.8,30.19,NNW,333,2.0,5.0,88,0.00,,,0.00,WeatherCatV1.21B27,2013-12-12 05:33:00,
2013-12-12 00:38:00,68.4,64.7,30.19,NNW,333,1.0,5.0,88,0.00,,,0.00,WeatherCatV1.21B27,2013-12-12 05:38:00,
2013-12-12 00:43:00,68.4,64.7,30.19,NW,321,2.0,5.0,88,0.00,,,0.00,WeatherCatV1.21B27,2013-12-12 05:43:00,
2013-12-12 00:48:00,68.3,64.6,30.19,NW,323,5.0,5.0,88,0.00,,,0.00,WeatherCatV1.21B27,2013-12-12 05:48:00,
2013-12-12 00:53:00,68.3,64.9,30.19,NNW,329,4.0,7.0,89,0.00,,,0.00,WeatherCatV1.21B27,2013-12-12 05:53:00,
2013-12-12 00:58:00,68.2,64.8,30.18,NNW,336,0.0,7.0,89,0.00,,,0.00,WeatherCatV1.21B27,2013-12-12 05:58:00,
2013-12-12 01:03:00,68.1,64.7,30.18,NE,40,2.0,4.0,89,0.00,,,0.00,WeatherCatV1.21B27,2013-12-12 06:03:00,
2013-12-12 01:08:00,68.1,64.7,30.18,WNW,301,1.0,6.0,89,0.00,,,0.00,WeatherCatV1.21B27,2013-12-12 06:08:00,
2013-12-12 01:13:00,68.0,64.6,30.18,NNW,341,0.0,2.0,89,0.00,,,0.00,WeatherCatV1.21B27,2013-12-12 06:13:00,
2013-12-12 01:18:00,67.9,64.5,30.18,NW,321,2.0,6.0,89,0.00,,,0.00,WeatherCatV1.21B27,2013-12-12 06:18:00,
2013-12-12 01:23:00,67.8,64.4,30.19,NNW,336,0.0,2.0,89,0.00,,,0.00,WeatherCatV1.21B27,2013-12-12 06:23:00,
2013-12-12 01:28:00,67.7,64.3,30.18,NNW,338,0.0,1.0,89,0.00,,,0.00,WeatherCatV1.21B27,2013-12-12 06:28:00,
2013-12-12 01:33:00,67.7,64.3,30.18,North,355,0.0,1.0,89,0.00,,,0.00,WeatherCatV1.21B27,2013-12-12 06:33:00,
2013-12-12 01:38:00,67.6,64.2,30.18,North,355,0.0,0.0,89,0.00,,,0.00,WeatherCatV1.21B27,2013-12-12 06:38:00,
2013-12-12 01:43:00,67.5,64.5,30.18,NNW,343,0.0,1.0,90,0.00,,,0.00,WeatherCatV1.21B27,2013-12-12 06:43:00,
2013-12-12 01:48:00,67.4,64.4,30.19,NNW,344,0.0,2.0,90,0.00,,,0.00,WeatherCatV1.21B27,2013-12-12 06:48:00,
2013-12-12 01:53:00,67.4,64.4,30.18,NNW,344,0.0,0.0,90,0.00,,,0.00,WeatherCatV1.21B27,2013-12-12 06:53:00,
2013-12-12 01:58:00,67.4,64.4,30.18,North,350,0.0,0.0,90,0.00,,,0.00,WeatherCatV1.21B27,2013-12-12 06:58:00,
2013-12-12 02:03:00,67.3,64.3,30.18,North,350,0.0,0.0,90,0.00,,,0.00,WeatherCatV1.21B27,2013-12-12 07:03:00,
2013-12-12 02:08:00,67.2,64.2,30.18,NNE,17,0.0,2.0,90,0.00,,,0.00,WeatherCatV1.21B27,2013-12-12 07:08:00,
2013-12-12 02:13:00,67.2,64.2,30.18,NNE,15,0.0,1.0,90,0.00,,,0.00,WeatherCatV1.21B27,2013-12-12 07:13:00,
2013-12-12 02:18:00,67.1,64.1,30.18,NNE,16,0.0,2.0,90,0.00,,,0.00,WeatherCatV1.21B27,2013-12-12 07:18:00,
2013-12-12 02:23:00,67.1,64.1,30.17,NNE,28,0.0,1.0,90,0.00,,,0.00,WeatherCatV1.21B27,2013-12-12 07:23:00,
2013-12-12 02:28:00,67.1,64.1,30.17,East,94,0.0,2.0,90,0.00,,,0.00,WeatherCatV1.21B27,2013-12-12 07:28:00,
2013-12-12 02:33:00,67.0,64.0,30.17,East,94,0.0,0.0,90,0.00,,,0.00,WeatherCatV1.21B27,2013-12-12 07:33:00,
2013-12-12 02:38:00,66.9,63.9,30.17,North,5,0.0,2.0,90,0.00,,,0.00,WeatherCatV1.21B27,2013-12-12 07:38:00,
2013-12-12 02:43:00,66.8,63.8,30.17,North,0,0.0,4.0,90,0.00,,,0.00,WeatherCatV1.21B27,2013-12-12 07:43:00,
2013-12-12 02:48:00,66.8,63.8,30.18,North,0,0.0,1.0,90,0.00,,,0.00,WeatherCatV1.21B27,2013-12-12 07:48:00,
2013-12-12 02:53:00,66.7,63.7,30.18,NNW,346,1.0,4.0,90,0.00,,,0.00,WeatherCatV1.21B27,2013-12-12 07:53:00,
2013-12-12 02:58:00,66.7,64.0,30.18,NNW,332,1.0,5.0,91,0.00,,,0.00,WeatherCatV1.21B27,2013-12-12 07:58:00,
2013-12-12 03:03:00,66.6,63.9,30.18,NNW,332,0.0,1.0,91,0.00,,,0.00,WeatherCatV1.21B27,2013-12-12 08:03:00,
2013-12-12 03:08:00,66.5,63.8,30.17,NNW,332,0.0,1.0,91,0.00,,,0.00,WeatherCatV1.21B27,2013-12-12 08:08:00,
2013-12-12 03:13:00,66.5,63.8,30.17,North,9,0.0,2.0,91,0.00,,,0.00,WeatherCatV1.21B27,2013-12-12 08:13:00,
2013-12-12 03:18:00,66.4,63.7,30.17,North,5,0.0,4.0,91,0.00,,,0.00,WeatherCatV1.21B27,2013-12-12 08:18:00,
2013-12-12 03:23:00,66.4,63.7,30.17,NNW,334,0.0,0.0,91,0.00,,,0.00,WeatherCatV1.21B27,2013-12-12 08:23:00,
2013-12-12 03:28:00,66.3,63.6,30.17,NNW,335,1.0,1.0,91,0.00,,,0.00,WeatherCatV1.21B27,2013-12-12 08:28:00,
2013-12-12 03:33:00,66.3,63.6,30.17,North,0,1.0,2.0,91,0.00,,,0.00,WeatherCatV1.21B27,2013-12-12 08:33:00,
2013-12-12 03:38:00,66.2,63.5,30.17,NNW,329,2.0,6.0,91,0.00,,,0.00,WeatherCatV1.21B27,2013-12-12 08:38:00,
2013-12-12 03:43:00,66.2,63.5,30.17,NNW,340,0.0,8.0,91,0.00,,,0.00,WeatherCatV1.21B27,2013-12-12 08:43:00,
2013-12-12 03:48:00,66.1,63.4,30.18,NW,323,1.0,9.0,91,0.00,,,0.00,WeatherCatV1.21B27,2013-12-12 08:48:00,
2013-12-12 03:53:00,65.9,63.2,30.17,NW,319,5.0,6.0,91,0.00,,,0.00,WeatherCatV1.21B27,2013-12-12 08:53:00,
2013-12-12 03:58:00,65.8,63.1,30.17,North,349,3.0,5.0,91,0.00,,,0.00,WeatherCatV1.21B27,2013-12-12 08:58:00,
2013-12-12 04:03:00,65.7,63.0,30.17,North,350,0.0,4.0,91,0.00,,,0.00,WeatherCatV1.21B27,2013-12-12 09:03:00,
2013-12-12 04:08:00,65.6,62.9,30.17,NW,321,7.0,7.0,91,0.00,,,0.00,WeatherCatV1.21B27,2013-12-12 09:08:00,
2013-12-12 04:13:00,65.5,62.8,30.18,NNE,24,0.0,2.0,91,0.00,,,0.00,WeatherCatV1.21B27,2013-12-12 09:13:00,
2013-12-12 04:18:00,65.4,62.7,30.18,NNW,344,5.0,8.0,91,0.00,,,0.00,WeatherCatV1.21B27,2013-12-12 09:18:00,
2013-12-12 04:23:00,65.4,62.7,30.18,NNW,335,5.0,11.0,91,0.00,,,0.00,WeatherCatV1.21B27,2013-12-12 09:23:00,
2013-12-12 04:28:00,65.4,62.7,30.18,NW,321,2.0,5.0,91,0.00,,,0.00,WeatherCatV1.21B27,2013-12-12 09:28:00,
2013-12-12 04:33:00,65.5,63.1,30.18,NNW,334,5.0,7.0,92,0.00,,,0.00,WeatherCatV1.21B27,2013-12-12 09:33:00,
2013-12-12 04:38:00,65.6,63.2,30.18,NNW,344,4.0,7.0,92,0.00,,,0.00,WeatherCatV1.21B27,2013-12-12 09:38:00,
2013-12-12 04:43:00,65.7,63.3,30.18,NW,324,1.0,8.0,92,0.00,,,0.00,WeatherCatV1.21B27,2013-12-12 09:43:00,
2013-12-12 04:48:00,65.8,63.4,30.19,NNW,333,3.0,9.0,92,0.00,,,0.00,WeatherCatV1.21B27,2013-12-12 09:48:00,
2013-12-12 04:53:00,65.9,63.5,30.19,North,349,1.0,4.0,92,0.00,,,0.00,WeatherCatV1.21B27,2013-12-12 09:53:00,
2013-12-12 04:58:00,66.0,63.6,30.18,NW,319,2.0,4.0,92,0.00,,,0.00,WeatherCatV1.21B27,2013-12-12 09:58:00,
2013-12-12 05:03:00,66.2,63.8,30.19,NW,316,6.0,11.0,92,0.00,,,0.00,WeatherCatV1.21B27,2013-12-12 10:03:00,
2013-12-12 05:08:00,66.2,63.8,30.19,NNW,333,3.0,9.0,92,0.00,,,0.00,WeatherCatV1.21B27,2013-12-12 10:08:00,
2013-12-12 05:13:00,66.2,63.8,30.19,North,0,4.0,12.0,92,0.00,,,0.00,WeatherCatV1.21B27,2013-12-12 10:13:00,
2013-12-12 05:18:00,66.1,63.7,30.19,North,0,7.0,11.0,92,0.00,,,0.00,WeatherCatV1.21B27,2013-12-12 10:18:00,
2013-12-12 05:23:00,66.0,63.6,30.20,NNW,334,9.0,13.0,92,0.00,,,0.00,WeatherCatV1.21B27,2013-12-12 10:23:00,
2013-12-12 05:28:00,65.9,63.5,30.19,NNW,329,6.0,9.0,92,0.00,,,0.00,WeatherCatV1.21B27,2013-12-12 10:28:00,
2013-12-12 05:33:00,65.7,63.3,30.19,North,5,5.0,12.0,92,0.00,,,0.00,WeatherCatV1.21B27,2013-12-12 10:33:00,
2013-12-12 05:38:00,65.6,63.2,30.20,North,355,5.0,6.0,92,0.00,,,0.00,WeatherCatV1.21B27,2013-12-12 10:38:00,
2013-12-12 05:43:00,65.5,63.1,30.20,NW,325,5.0,7.0,92,0.00,,,0.00,WeatherCatV1.21B27,2013-12-12 10:43:00,
2013-12-12 05:48:00,65.4,63.3,30.20,NNW,333,7.0,11.0,93,0.00,,,0.00,WeatherCatV1.21B27,2013-12-12 10:48:00,
2013-12-12 05:53:00,65.3,63.2,30.20,NNW,341,2.0,12.0,93,0.00,,,0.00,WeatherCatV1.21B27,2013-12-12 10:53:00,
2013-12-12 05:58:00,65.2,63.1,30.20,North,350,1.0,6.0,93,0.00,,,0.00,WeatherCatV1.21B27,2013-12-12 10:58:00,
2013-12-12 06:03:00,65.1,63.0,30.20,NNW,334,5.0,10.0,93,0.00,,,0.00,WeatherCatV1.21B27,2013-12-12 11:03:00,
2013-12-12 06:08:00,65.0,62.9,30.21,NNW,339,5.0,7.0,93,0.00,,,0.00,WeatherCatV1.21B27,2013-12-12 11:08:00,
2013-12-12 06:13:00,65.0,62.9,30.22,NNW,348,6.0,8.0,93,0.00,,,0.00,WeatherCatV1.21B27,2013-12-12 11:13:00,
2013-12-12 06:18:00,64.9,62.8,30.22,North,0,0.0,9.0,93,0.00,,,0.00,WeatherCatV1.21B27,2013-12-12 11:18:00,
2013-12-12 06:23:00,64.7,62.6,30.22,NW,314,5.0,8.0,93,0.00,,,0.00,WeatherCatV1.21B27,2013-12-12 11:23:00,
2013-12-12 06:28:00,64.7,62.6,30.21,North,5,1.0,3.0,93,0.00,,,0.00,WeatherCatV1.21B27,2013-12-12 11:28:00,
2013-12-12 06:33:00,64.7,62.6,30.21,NW,304,2.0,7.0,93,0.00,,,0.00,WeatherCatV1.21B27,2013-12-12 11:33:00,
2013-12-12 06:38:00,64.7,62.6,30.21,North,355,0.0,6.0,93,0.00,,,0.00,WeatherCatV1.21B27,2013-12-12 11:38:00,
2013-12-12 06:43:00,64.6,62.5,30.21,NNE,23,0.0,4.0,93,0.00,,,0.00,WeatherCatV1.21B27,2013-12-12 11:43:00,
2013-12-12 06:48:00,64.6,62.5,30.21,NW,325,1.0,1.0,93,0.00,,,0.00,WeatherCatV1.21B27,2013-12-12 11:48:00,
2013-12-12 06:53:00,64.5,62.4,30.21,North,351,0.0,4.0,93,0.00,,,0.00,WeatherCatV1.21B27,2013-12-12 11:53:00,
2013-12-12 06:58:00,64.6,62.5,30.22,North,355,0.0,5.0,93,0.00,,,0.00,WeatherCatV1.21B27,2013-12-12 11:58:00,
2013-12-12 07:03:00,64.6,62.5,30.22,NNE,19,1.0,5.0,93,0.00,,,0.00,WeatherCatV1.21B27,2013-12-12 12:03:00,
2013-12-12 07:08:00,64.6,62.5,30.23,NNE,22,2.0,7.0,93,0.00,,,0.00,WeatherCatV1.21B27,2013-12-12 12:08:00,
2013-12-12 07:13:00,64.6,62.5,30.23,NNW,338,1.0,7.0,93,0.00,,,0.00,WeatherCatV1.21B27,2013-12-12 12:13:00,
2013-12-12 07:18:00,64.6,62.5,30.22,ENE,63,0.0,4.0,93,0.00,,,0.00,WeatherCatV1.21B27,2013-12-12 12:18:00,
2013-12-12 07:23:00,64.6,62.5,30.22,North,355,4.0,4.0,93,0.00,,,0.00,WeatherCatV1.21B27,2013-12-12 12:23:00,
2013-12-12 07:28:00,64.6,62.8,30.22,North,350,2.0,2.0,94,0.00,,,0.00,WeatherCatV1.21B27,2013-12-12 12:28:00,
2013-12-12 07:33:00,64.7,62.9,30.23,North,350,1.0,2.0,94,0.00,,,0.00,WeatherCatV1.21B27,2013-12-12 12:33:00,
2013-12-12 07:38:00,64.7,62.9,30.23,NW,325,0.0,4.0,94,0.00,,,0.00,WeatherCatV1.21B27,2013-12-12 12:38:00,
2013-12-12 07:43:00,64.7,62.9,30.23,NNW,337,1.0,5.0,94,0.00,,,0.00,WeatherCatV1.21B27,2013-12-12 12:43:00,
2013-12-12 07:48:00,64.7,62.9,30.24,East,87,0.0,4.0,94,0.00,,,0.00,WeatherCatV1.21B27,2013-12-12 12:48:00,
2013-12-12 07:53:00,64.6,62.5,30.24,NNW,336,0.0,2.0,93,0.00,,,0.00,WeatherCatV1.21B27,2013-12-12 12:53:00,
2013-12-12 07:58:00,64.6,62.8,30.24,NNW,346,0.0,3.0,94,0.00,,,0.00,WeatherCatV1.21B27,2013-12-12 12:58:00,
2013-12-12 08:03:00,64.6,62.8,30.24,NNW,336,1.0,7.0,94,0.00,,,0.00,WeatherCatV1.21B27,2013-12-12 13:03:00,
2013-12-12 08:08:00,64.7,62.9,30.25,NNW,338,5.0,7.0,94,0.00,,,0.00,WeatherCatV1.21B27,2013-12-12 13:08:00,
2013-12-12 08:13:00,64.6,62.5,30.25,NNE,19,5.0,6.0,93,0.00,,,0.00,WeatherCatV1.21B27,2013-12-12 13:13:00,
2013-12-12 08:18:00,64.5,62.4,30.25,NNW,345,3.0,6.0,93,0.00,,,0.00,WeatherCatV1.21B27,2013-12-12 13:18:00,
2013-12-12 08:23:00,64.5,62.4,30.25,NNE,32,2.0,6.0,93,0.00,,,0.00,WeatherCatV1.21B27,2013-12-12 13:23:00,
2013-12-12 08:28:00,64.6,62.5,30.25,ENE,64,0.0,9.0,93,0.00,,,0.00,WeatherCatV1.21B27,2013-12-12 13:28:00,
2013-12-12 08:33:00,64.6,62.5,30.25,NNE,16,3.0,6.0,93,0.00,,,0.00,WeatherCatV1.21B27,2013-12-12 13:33:00,
2013-12-12 08:38:00,64.6,62.5,30.26,NNE,29,0.0,2.0,93,0.00,,,0.00,WeatherCatV1.21B27,2013-12-12 13:38:00,
2013-12-12 08:43:00,64.7,62.9,30.26,NNE,12,0.0,8.0,94,0.00,,,0.00,WeatherCatV1.21B27,2013-12-12 13:43:00,
2013-12-12 08:48:00,64.8,62.7,30.26,NNE,30,0.0,2.0,93,0.00,,,0.00,WeatherCatV1.21B27,2013-12-12 13:48:00,
2013-12-12 08:53:00,64.9,62.8,30.26,NE,51,1.0,6.0,93,0.00,,,0.00,WeatherCatV1.21B27,2013-12-12 13:53:00,
2013-12-12 08:58:00,65.0,62.9,30.25,ESE,113,4.0,6.0,93,0.00,,,0.00,WeatherCatV1.21B27,2013-12-12 13:58:00,
2013-12-12 09:03:00,65.0,62.9,30.26,North,5,0.0,8.0,93,0.00,,,0.00,WeatherCatV1.21B27,2013-12-12 14:03:00,
2013-12-12 09:08:00,65.2,63.1,30.26,East,84,0.0,6.0,93,0.00,,,0.00,WeatherCatV1.21B27,2013-12-12 14:08:00,
2013-12-12 09:13:00,65.3,62.9,30.26,NW,307,0.0,5.0,92,0.00,,,0.00,WeatherCatV1.21B27,2013-12-12 14:13:00,
2013-12-12 09:18:00,65.4,63.0,30.25,East,100,4.0,6.0,92,0.00,,,0.00,WeatherCatV1.21B27,2013-12-12 14:18:00,
2013-12-12 09:23:00,65.5,62.8,30.27,NW,323,6.0,10.0,91,0.00,,,0.00,WeatherCatV1.21B27,2013-12-12 14:23:00,
2013-12-12 09:28:00,65.4,62.4,30.27,North,355,4.0,13.0,90,0.00,,,0.00,WeatherCatV1.21B27,2013-12-12 14:28:00,
2013-12-12 09:33:00,65.5,62.5,30.28,NNW,348,7.0,12.0,90,0.00,,,0.00,WeatherCatV1.21B27,2013-12-12 14:33:00,
2013-12-12 09:38:00,65.5,62.5,30.28,NW,321,10.0,12.0,90,0.00,,,0.00,WeatherCatV1.21B27,2013-12-12 14:38:00,
2013-12-12 09:43:00,65.4,62.4,30.28,NNW,327,8.0,8.0,90,0.00,,,0.00,WeatherCatV1.21B27,2013-12-12 14:43:00,
2013-12-12 09:48:00,65.4,62.4,30.28,NNE,30,3.0,6.0,90,0.00,,,0.00,WeatherCatV1.21B27,2013-12-12 14:48:00,
2013-12-12 09:53:00,65.4,62.4,30.28,NNW,332,10.0,10.0,90,0.00,,,0.00,WeatherCatV1.21B27,2013-12-12 14:53:00,
2013-12-12 09:58:00,65.3,62.0,30.28,NNW,333,5.0,10.0,89,0.00,,,0.00,WeatherCatV1.21B27,2013-12-12 14:58:00,
2013-12-12 10:03:00,65.3,62.3,30.29,NW,315,5.0,10.0,90,0.00,,,0.00,WeatherCatV1.21B27,2013-12-12 15:03:00,
2013-12-12 10:08:00,65.3,62.3,30.29,NW,319,5.0,7.0,90,0.00,,,0.00,WeatherCatV1.21B27,2013-12-12 15:08:00,
2013-12-12 10:13:00,65.3,62.0,30.29,NW,323,7.0,11.0,89,0.00,,,0.00,WeatherCatV1.21B27,2013-12-12 15:13:00,
2013-12-12 10:18:00,65.4,62.1,30.29,NW,323,7.0,9.0,89,0.00,,,0.00,WeatherCatV1.21B27,2013-12-12 15:18:00,
2013-12-12 10:23:00,65.5,62.2,30.29,NE,49,2.0,7.0,89,0.00,,,0.00,WeatherCatV1.21B27,2013-12-12 15:23:00,
2013-12-12 10:28:00,65.7,62.0,30.28,North,0,3.0,6.0,88,0.00,,,0.00,WeatherCatV1.21B27,2013-12-12 15:28:00,
2013-12-12 10:33:00,66.0,62.3,30.29,NNE,18,1.0,7.0,88,0.00,,,0.00,WeatherCatV1.21B27,2013-12-12 15:33:00,
2013-12-12 10:38:00,66.2,62.2,30.29,NNE,28,6.0,8.0,87,0.00,,,0.00,WeatherCatV1.21B27,2013-12-12 15:38:00,
2013-12-12 10:43:00,66.4,62.4,30.29,NNW,333,6.0,6.0,87,0.00,,,0.00,WeatherCatV1.21B27,2013-12-12 15:43:00,
2013-12-12 10:48:00,66.5,62.2,30.28,NE,50,1.0,7.0,86,0.00,,,0.00,WeatherCatV1.21B27,2013-12-12 15:48:00,
2013-12-12 10:53:00,66.5,62.2,30.28,NNW,336,6.0,7.0,86,0.00,,,0.00,WeatherCatV1.21B27,2013-12-12 15:53:00,
2013-12-12 10:58:00,66.5,62.2,30.28,North,355,9.0,9.0,86,0.00,,,0.00,WeatherCatV1.21B27,2013-12-12 15:58:00,
2013-12-12 11:03:00,66.3,62.0,30.28,NW,323,7.0,11.0,86,0.00,,,0.00,WeatherCatV1.21B27,2013-12-12 16:03:00,
2013-12-12 11:08:00,66.1,61.8,30.27,NW,313,8.0,9.0,86,0.00,,,0.00,WeatherCatV1.21B27,2013-12-12 16:08:00,
2013-12-12 11:13:00,66.2,61.9,30.27,North,355,5.0,7.0,86,0.00,,,0.00,WeatherCatV1.21B27,2013-12-12 16:13:00,
2013-12-12 11:18:00,66.3,62.0,30.27,NNE,12,0.0,6.0,86,0.00,,,0.00,WeatherCatV1.21B27,2013-12-12 16:18:00,
2013-12-12 11:23:00,66.5,61.8,30.27,NNW,347,5.0,9.0,85,0.00,,,0.00,WeatherCatV1.21B27,2013-12-12 16:23:00,
2013-12-12 11:28:00,66.7,62.0,30.27,NNE,24,5.0,7.0,85,0.00,,,0.00,WeatherCatV1.21B27,2013-12-12 16:28:00,
2013-12-12 11:33:00,66.4,61.1,30.27,North,350,6.0,13.0,83,0.00,,,0.00,WeatherCatV1.21B27,2013-12-12 16:33:00,
2013-12-12 11:38:00,65.8,60.8,30.27,NE,36,5.0,11.0,84,0.00,,,0.00,WeatherCatV1.21B27,2013-12-12 16:38:00,
2013-12-12 11:43:00,65.3,60.3,30.27,NE,40,2.0,7.0,84,0.00,,,0.00,WeatherCatV1.21B27,2013-12-12 16:43:00,
2013-12-12 11:48:00,65.2,60.6,30.27,NNW,333,4.0,10.0,85,0.00,,,0.00,WeatherCatV1.21B27,2013-12-12 16:48:00,
2013-12-12 11:53:00,65.2,60.6,30.27,North,351,4.0,9.0,85,0.00,,,0.00,WeatherCatV1.21B27,2013-12-12 16:53:00,
2013-12-12 11:58:00,65.2,60.6,30.26,ENE,67,5.0,7.0,85,0.00,,,0.00,WeatherCatV1.21B27,2013-12-12 16:58:00,
2013-12-12 12:03:00,65.2,60.2,30.26,North,355,1.0,6.0,84,0.00,,,0.00,WeatherCatV1.21B27,2013-12-12 17:03:00,
2013-12-12 12:08:00,65.4,60.4,30.26,North,0,4.0,9.0,84,0.00,,,0.00,WeatherCatV1.21B27,2013-12-12 17:08:00,
2013-12-12 12:14:00,65.7,60.7,30.25,East,98,1.0,7.0,84,0.00,,,0.00,WeatherCatV1.21B27,2013-12-12 17:14:00,
2013-12-12 12:19:00,65.9,60.6,30.25,North,0,2.0,9.0,83,0.00,,,0.00,WeatherCatV1.21B27,2013-12-12 17:19:00,
2013-12-12 12:24:00,66.0,61.0,30.25,North,355,3.0,8.0,84,0.00,,,0.00,WeatherCatV1.21B27,2013-12-12 17:24:00,
2013-12-12 12:29:00,66.3,60.6,30.24,NE,41,4.0,9.0,82,0.00,,,0.00,WeatherCatV1.21B27,2013-12-12 17:29:00,
2013-12-12 12:34:00,66.4,60.7,30.24,NW,322,3.0,7.0,82,0.00,,,0.00,WeatherCatV1.21B27,2013-12-12 17:34:00,
2013-12-12 12:39:00,66.7,61.0,30.24,North,0,3.0,5.0,82,0.00,,,0.00,WeatherCatV1.21B27,2013-12-12 17:39:00,
2013-12-12 12:44:00,66.9,61.2,30.24,North,9,3.0,8.0,82,0.00,,,0.00,WeatherCatV1.21B27,2013-12-12 17:44:00,
2013-12-12 12:49:00,67.2,61.2,30.24,NNE,26,2.0,3.0,81,0.00,,,0.00,WeatherCatV1.21B27,2013-12-12 17:49:00,
2013-12-12 12:54:00,67.2,61.2,30.23,ENE,71,3.0,9.0,81,0.00,,,0.00,WeatherCatV1.21B27,2013-12-12 17:54:00,
2013-12-12 12:59:00,67.1,61.1,30.23,NNE,31,3.0,9.0,81,0.00,,,0.00,WeatherCatV1.21B27,2013-12-12 17:59:00,
2013-12-12 13:04:00,67.2,61.5,30.23,North,0,4.0,4.0,82,0.00,,,0.00,WeatherCatV1.21B27,2013-12-12 18:04:00,
2013-12-12 13:09:00,67.7,61.7,30.22,East,83,5.0,7.0,81,0.00,,,0.00,WeatherCatV1.21B27,2013-12-12 18:09:00,
2013-12-12 13:14:00,68.1,61.7,30.22,ENE,63,1.0,10.0,80,0.00,,,0.00,WeatherCatV1.21B27,2013-12-12 18:14:00,
2013-12-12 13:19:00,68.4,61.6,30.22,North,355,1.0,8.0,79,0.00,,,0.00,WeatherCatV1.21B27,2013-12-12 18:19:00,
2013-12-12 13:24:00,68.8,62.0,30.22,ENE,71,6.0,8.0,79,0.00,,,0.00,WeatherCatV1.21B27,2013-12-12 18:24:00,
2013-12-12 13:29:00,69.0,62.2,30.21,NE,55,1.0,6.0,79,0.00,,,0.00,WeatherCatV1.21B27,2013-12-12 18:29:00,
2013-12-12 13:34:00,69.4,62.6,30.21,NW,323,7.0,10.0,79,0.00,,,0.00,WeatherCatV1.21B27,2013-12-12 18:34:00,
2013-12-12 13:39:00,69.8,62.2,30.21,ENE,63,2.0,4.0,77,0.00,,,0.00,WeatherCatV1.21B27,2013-12-12 18:39:00,
2013-12-12 13:44:00,69.9,61.6,30.20,WNW,285,1.0,10.0,75,0.00,,,0.00,WeatherCatV1.21B27,2013-12-12 18:44:00,
2013-12-12 13:49:00,69.8,61.9,30.20,North,0,3.0,8.0,76,0.00,,,0.00,WeatherCatV1.21B27,2013-12-12 18:49:00,
2013-12-12 13:54:00,69.8,61.5,30.20,East,90,4.0,6.0,75,0.00,,,0.00,WeatherCatV1.21B27,2013-12-12 18:54:00,
2013-12-12 13:59:00,70.3,62.0,30.20,NNE,13,2.0,8.0,75,0.00,,,0.00,WeatherCatV1.21B27,2013-12-12 18:59:00,
2013-12-12 14:04:00,70.8,61.7,30.19,NNW,348,5.0,7.0,73,0.00,,,0.00,WeatherCatV1.21B27,2013-12-12 19:04:00,
2013-12-12 14:09:00,71.1,61.6,30.19,NNE,17,1.0,2.0,72,0.00,,,0.00,WeatherCatV1.21B27,2013-12-12 19:09:00,
2013-12-12 14:14:00,71.3,60.6,30.19,North,0,6.0,7.0,69,0.00,,,0.00,WeatherCatV1.21B27,2013-12-12 19:14:00,
2013-12-12 14:19:00,71.7,61.0,30.19,NNW,336,5.0,10.0,69,0.00,,,0.00,WeatherCatV1.21B27,2013-12-12 19:19:00,
2013-12-12 14:24:00,71.9,59.9,30.19,North,9,4.0,7.0,66,0.00,,,0.00,WeatherCatV1.21B27,2013-12-12 19:24:00,
2013-12-12 14:29:00,72.0,60.0,30.18,NNW,345,5.0,11.0,66,0.00,,,0.00,WeatherCatV1.21B27,2013-12-12 19:29:00,
2013-12-12 14:34:00,72.1,59.7,30.18,NNW,336,5.0,13.0,65,0.00,,,0.00,WeatherCatV1.21B27,2013-12-12 19:34:00,
2013-12-12 14:39:00,72.2,58.9,30.18,NNW,334,4.0,7.0,63,0.00,,,0.00,WeatherCatV1.21B27,2013-12-12 19:39:00,
2013-12-12 14:44:00,72.4,58.6,30.18,NE,55,1.0,8.0,62,0.00,,,0.00,WeatherCatV1.21B27,2013-12-12 19:44:00,
2013-12-12 14:49:00,72.6,58.8,30.18,North,5,3.0,8.0,62,0.00,,,0.00,WeatherCatV1.21B27,2013-12-12 19:49:00,
2013-12-12 14:54:00,72.7,58.5,30.18,NNE,28,1.0,6.0,61,0.00,,,0.00,WeatherCatV1.21B27,2013-12-12 19:54:00,
2013-12-12 14:59:00,72.9,57.7,30.18,North,355,3.0,10.0,59,0.00,,,0.00,WeatherCatV1.21B27,2013-12-12 19:59:00,
2013-12-12 15:04:00,73.0,57.8,30.18,North,5,6.0,7.0,59,0.00,,,0.00,WeatherCatV1.21B27,2013-12-12 20:04:00,
2013-12-12 15:09:00,73.1,56.5,30.18,North,351,5.0,9.0,56,0.00,,,0.00,WeatherCatV1.21B27,2013-12-12 20:09:00,
2013-12-12 15:14:00,73.1,56.9,30.18,NW,323,9.0,11.0,57,0.00,,,0.00,WeatherCatV1.21B27,2013-12-12 20:14:00,
2013-12-12 15:19:00,73.0,55.4,30.18,NE,53,4.0,9.0,54,0.00,,,0.00,WeatherCatV1.21B27,2013-12-12 20:19:00,
2013-12-12 15:24:00,73.0,54.8,30.18,NNE,31,3.0,9.0,53,0.00,,,0.00,WeatherCatV1.21B27,2013-12-12 20:24:00,
2013-12-12 15:29:00,73.0,54.8,30.18,NW,321,10.0,11.0,53,0.00,,,0.00,WeatherCatV1.21B27,2013-12-12 20:29:00,
2013-12-12 15:34:00,72.9,54.8,30.18,NW,323,6.0,14.0,53,0.00,,,0.00,WeatherCatV1.21B27,2013-12-12 20:34:00,
2013-12-12 15:39:00,72.6,54.5,30.18,NW,321,4.0,11.0,53,0.00,,,0.00,WeatherCatV1.21B27,2013-12-12 20:39:00,
2013-12-12 15:44:00,72.5,54.9,30.18,NNW,336,4.0,11.0,54,0.00,,,0.00,WeatherCatV1.21B27,2013-12-12 20:44:00,
2013-12-12 15:49:00,72.5,53.3,30.18,North,0,2.0,9.0,51,0.00,,,0.00,WeatherCatV1.21B27,2013-12-12 20:49:00,
2013-12-12 15:54:00,72.4,52.7,30.18,North,5,3.0,7.0,50,0.00,,,0.00,WeatherCatV1.21B27,2013-12-12 20:54:00,
2013-12-12 15:59:00,72.3,53.1,30.18,NNW,329,0.0,5.0,51,0.00,,,0.00,WeatherCatV1.21B27,2013-12-12 20:59:00,
2013-12-12 16:04:00,72.2,53.0,30.18,NNW,328,1.0,5.0,51,0.00,,,0.00,WeatherCatV1.21B27,2013-12-12 21:04:00,
2013-12-12 16:09:00,72.1,53.5,30.18,NNE,13,2.0,10.0,52,0.00,,,0.00,WeatherCatV1.21B27,2013-12-12 21:09:00,
2013-12-12 16:14:00,72.0,52.3,30.18,NNE,17,5.0,13.0,50,0.00,,,0.00,WeatherCatV1.21B27,2013-12-12 21:14:00,
2013-12-12 16:19:00,71.8,51.0,30.18,NNE,17,0.0,4.0,48,0.00,,,0.00,WeatherCatV1.21B27,2013-12-12 21:19:00,
2013-12-12 16:24:00,71.8,51.6,30.18,North,355,4.0,7.0,49,0.00,,,0.00,WeatherCatV1.21B27,2013-12-12 21:24:00,
2013-12-12 16:25:00,71.8,51.0,30.18,NNE,28,1.0,7.0,48,0.00,,,0.00,WeatherCatV1.21B27,2013-12-12 21:25:00,
2013-12-12 16:30:00,71.7,50.4,30.18,North,0,4.0,10.0,47,0.00,,,0.00,WeatherCatV1.21B27,2013-12-12 21:30:00,
2013-12-12 16:35:00,71.5,50.8,30.19,NNW,336,6.0,9.0,48,0.00,,,0.00,WeatherCatV1.21B27,2013-12-12 21:35:00,
2013-12-12 16:40:00,71.3,51.1,30.19,North,355,1.0,7.0,49,0.00,,,0.00,WeatherCatV1.21B27,2013-12-12 21:40:00,
2013-12-12 16:45:00,71.1,49.8,30.19,NW,325,5.0,8.0,47,0.00,,,0.00,WeatherCatV1.21B27,2013-12-12 21:45:00,
2013-12-12 16:50:00,70.9,50.2,30.19,NNW,330,4.0,7.0,48,0.00,,,0.00,WeatherCatV1.21B27,2013-12-12 21:50:00,
2013-12-12 16:55:00,70.7,50.6,30.19,North,350,2.0,4.0,49,0.00,,,0.00,WeatherCatV1.21B27,2013-12-12 21:55:00,
2013-12-12 17:00:00,70.6,51.0,30.19,NNW,329,5.0,7.0,50,0.00,,,0.00,WeatherCatV1.21B27,2013-12-12 22:00:00,
2013-12-12 17:05:00,70.3,50.2,30.19,North,351,2.0,5.0,49,0.00,,,0.00,WeatherCatV1.21B27,2013-12-12 22:05:00,
2013-12-12 17:10:00,70.1,51.1,30.19,North,5,2.0,3.0,51,0.00,,,0.00,WeatherCatV1.21B27,2013-12-12 22:10:00,
2013-12-12 17:15:00,69.9,50.4,30.19,North,0,2.0,2.0,50,0.00,,,0.00,WeatherCatV1.21B27,2013-12-12 22:15:00,
2013-12-12 17:20:00,69.6,50.1,30.20,North,9,2.0,4.0,50,0.00,,,0.00,WeatherCatV1.21B27,2013-12-12 22:20:00,
2013-12-12 17:25:00,69.3,49.3,30.20,NNW,342,1.0,3.0,49,0.00,,,0.00,WeatherCatV1.21B27,2013-12-12 22:25:00,
2013-12-12 17:30:00,69.1,48.6,30.20,NNW,335,2.0,9.0,48,0.00,,,0.00,WeatherCatV1.21B27,2013-12-12 22:30:00,
2013-12-12 17:35:00,68.8,48.3,30.20,North,5,0.0,7.0,48,0.00,,,0.00,WeatherCatV1.21B27,2013-12-12 22:35:00,
2013-12-12 17:40:00,68.6,48.1,30.20,NNE,14,2.0,4.0,48,0.00,,,0.00,WeatherCatV1.21B27,2013-12-12 22:40:00,
2013-12-12 17:45:00,68.5,48.6,30.20,NNE,25,0.0,5.0,49,0.00,,,0.00,WeatherCatV1.21B27,2013-12-12 22:45:00,
2013-12-12 17:50:00,68.3,48.4,30.20,NW,310,3.0,5.0,49,0.00,,,0.00,WeatherCatV1.21B27,2013-12-12 22:50:00,
2013-12-12 17:55:00,68.1,47.7,30.21,North,11,1.0,5.0,48,0.00,,,0.00,WeatherCatV1.21B27,2013-12-12 22:55:00,
2013-12-12 18:00:00,67.9,47.5,30.21,North,0,0.0,8.0,48,0.00,,,0.00,WeatherCatV1.21B27,2013-12-12 23:00:00,
2013-12-12 18:05:00,67.7,48.4,30.21,East,84,0.0,1.0,50,0.00,,,0.00,WeatherCatV1.21B27,2013-12-12 23:05:00,
2013-12-12 18:10:00,67.5,47.7,30.21,ENE,68,1.0,5.0,49,0.00,,,0.00,WeatherCatV1.21B27,2013-12-12 23:10:00,
2013-12-12 18:15:00,67.3,47.5,30.21,East,101,0.0,5.0,49,0.00,,,0.00,WeatherCatV1.21B27,2013-12-12 23:15:00,
2013-12-12 18:20:00,67.1,46.7,30.22,NNE,21,0.0,2.0,48,0.00,,,0.00,WeatherCatV1.21B27,2013-12-12 23:20:00,
2013-12-12 18:25:00,66.9,45.4,30.22,NE,53,3.0,5.0,46,0.00,,,0.00,WeatherCatV1.21B27,2013-12-12 23:25:00,
2013-12-12 18:30:00,66.8,45.3,30.23,North,5,1.0,3.0,46,0.00,,,0.00,WeatherCatV1.21B27,2013-12-12 23:30:00,
2013-12-12 18:35:00,66.6,44.6,30.22,NNW,335,1.0,8.0,45,0.00,,,0.00,WeatherCatV1.21B27,2013-12-12 23:35:00,
2013-12-12 18:40:00,66.3,44.9,30.23,NNW,336,0.0,3.0,46,0.00,,,0.00,WeatherCatV1.21B27,2013-12-12 23:40:00,
2013-12-12 18:45:00,66.1,44.1,30.23,North,355,1.0,4.0,45,0.00,,,0.00,WeatherCatV1.21B27,2013-12-12 23:45:00,
2013-12-12 18:50:00,65.8,43.3,30.23,NNW,329,0.0,5.0,44,0.00,,,0.00,WeatherCatV1.21B27,2013-12-12 23:50:00,
2013-12-12 18:55:00,65.6,43.1,30.23,North,0,0.0,6.0,44,0.00,,,0.00,WeatherCatV1.21B27,2013-12-12 23:55:00,
2013-12-12 19:00:00,65.4,41.7,30.23,NNE,14,0.0,7.0,42,0.00,,,0.00,WeatherCatV1.21B27,2013-12-13 00:00:00,
2013-12-12 19:05:00,65.2,40.9,30.23,North,349,4.0,5.0,41,0.00,,,0.00,WeatherCatV1.21B27,2013-12-13 00:05:00,
2013-12-12 19:10:00,65.0,41.3,30.23,North,350,1.0,6.0,42,0.00,,,0.00,WeatherCatV1.21B27,2013-12-13 00:10:00,
2013-12-12 19:15:00,64.7,41.7,30.24,NNW,348,5.0,11.0,43,0.00,,,0.00,WeatherCatV1.21B27,2013-12-13 00:15:00,
2013-12-12 19:20:00,64.4,40.2,30.24,North,10,0.0,8.0,41,0.00,,,0.00,WeatherCatV1.21B27,2013-12-13 00:20:00,
2013-12-12 19:25:00,64.3,40.1,30.24,North,350,5.0,9.0,41,0.00,,,0.00,WeatherCatV1.21B27,2013-12-13 00:25:00,
2013-12-12 19:30:00,64.1,39.3,30.24,ENE,57,1.0,7.0,40,0.00,,,0.00,WeatherCatV1.21B27,2013-12-13 00:30:00,
2013-12-12 19:35:00,63.9,39.7,30.25,North,11,2.0,8.0,41,0.00,,,0.00,WeatherCatV1.21B27,2013-12-13 00:35:00,
2013-12-12 19:40:00,63.7,39.5,30.25,North,11,2.0,5.0,41,0.00,,,0.00,WeatherCatV1.21B27,2013-12-13 00:40:00,
2013-12-12 19:45:00,63.5,38.7,30.25,North,5,1.0,9.0,40,0.00,,,0.00,WeatherCatV1.21B27,2013-12-13 00:45:00,
2013-12-12 19:50:00,63.3,39.2,30.25,NW,326,1.0,5.0,41,0.00,,,0.00,WeatherCatV1.21B27,2013-12-13 00:50:00,
2013-12-12 19:55:00,63.1,39.6,30.25,North,355,2.0,5.0,42,0.00,,,0.00,WeatherCatV1.21B27,2013-12-13 00:55:00,
2013-12-12 20:00:00,62.9,39.5,30.26,NNW,335,4.0,9.0,42,0.00,,,0.00,WeatherCatV1.21B27,2013-12-13 01:00:00,
2013-12-12 20:05:00,62.7,39.3,30.26,NNW,339,6.0,7.0,42,0.00,,,0.00,WeatherCatV1.21B27,2013-12-13 01:05:00,
2013-12-12 20:10:00,62.5,39.1,30.26,North,0,1.0,5.0,42,0.00,,,0.00,WeatherCatV1.21B27,2013-12-13 01:10:00,
2013-12-12 20:15:00,62.3,38.9,30.26,ENE,58,2.0,7.0,42,0.00,,,0.00,WeatherCatV1.21B27,2013-12-13 01:15:00,
2013-12-12 20:20:00,62.2,39.4,30.26,North,5,3.0,10.0,43,0.00,,,0.00,WeatherCatV1.21B27,2013-12-13 01:20:00,
2013-12-12 20:25:00,62.1,39.9,30.26,ENE,57,0.0,4.0,44,0.00,,,0.00,WeatherCatV1.21B27,2013-12-13 01:25:00,
2013-12-12 20:30:00,61.9,39.2,30.27,NNW,343,0.0,5.0,43,0.00,,,0.00,WeatherCatV1.21B27,2013-12-13 01:30:00,
2013-12-12 20:35:00,61.8,39.7,30.27,East,81,1.0,5.0,44,0.00,,,0.00,WeatherCatV1.21B27,2013-12-13 01:35:00,
2013-12-12 20:40:00,61.6,39.5,30.27,NNE,28,1.0,5.0,44,0.00,,,0.00,WeatherCatV1.21B27,2013-12-13 01:40:00,
2013-12-12 20:45:00,61.5,39.4,30.27,North,355,1.0,8.0,44,0.00,,,0.00,WeatherCatV1.21B27,2013-12-13 01:45:00,
2013-12-12 20:50:00,61.3,39.8,30.27,NNW,348,4.0,8.0,45,0.00,,,0.00,WeatherCatV1.21B27,2013-12-13 01:50:00,
2013-12-12 20:55:00,61.2,39.7,30.27,North,350,1.0,5.0,45,0.00,,,0.00,WeatherCatV1.21B27,2013-12-13 01:55:00,
2013-12-12 21:00:00,61.1,40.2,30.28,NNW,335,1.0,2.0,46,0.00,,,0.00,WeatherCatV1.21B27,2013-12-13 02:00:00,
2013-12-12 21:05:00,60.9,40.0,30.28,NW,326,5.0,5.0,46,0.00,,,0.00,WeatherCatV1.21B27,2013-12-13 02:05:00,
2013-12-12 21:10:00,60.6,39.7,30.28,North,5,1.0,3.0,46,0.00,,,0.00,WeatherCatV1.21B27,2013-12-13 02:10:00,
2013-12-12 21:15:00,60.4,39.5,30.28,NNE,15,1.0,2.0,46,0.00,,,0.00,WeatherCatV1.21B27,2013-12-13 02:15:00,
2013-12-12 21:20:00,60.2,39.9,30.28,NNW,339,3.0,5.0,47,0.00,,,0.00,WeatherCatV1.21B27,2013-12-13 02:20:00,
2013-12-12 21:25:00,60.0,40.2,30.28,NNE,16,2.0,5.0,48,0.00,,,0.00,WeatherCatV1.21B27,2013-12-13 02:25:00,
2013-12-12 21:30:00,59.8,40.1,30.28,NE,51,0.0,4.0,48,0.00,,,0.00,WeatherCatV1.21B27,2013-12-13 02:30:00,
2013-12-12 21:35:00,59.7,40.0,30.28,NNW,339,0.0,3.0,48,0.00,,,0.00,WeatherCatV1.21B27,2013-12-13 02:35:00,
2013-12-12 21:40:00,59.5,39.8,30.28,NNW,332,2.0,4.0,48,0.00,,,0.00,WeatherCatV1.21B27,2013-12-13 02:40:00,
2013-12-12 21:45:00,59.4,40.2,30.28,East,89,3.0,5.0,49,0.00,,,0.00,WeatherCatV1.21B27,2013-12-13 02:45:00,
2013-12-12 21:50:00,59.2,40.0,30.28,NE,34,0.0,4.0,49,0.00,,,0.00,WeatherCatV1.21B27,2013-12-13 02:50:00,
2013-12-12 21:56:00,59.0,40.4,30.29,ENE,72,5.0,5.0,50,0.00,,,0.00,WeatherCatV1.21B27,2013-12-13 02:56:00,
2013-12-12 22:01:00,58.8,40.2,30.29,NNE,13,0.0,6.0,50,0.00,,,0.00,WeatherCatV1.21B27,2013-12-13 03:01:00,
2013-12-12 22:06:00,58.6,39.5,30.28,ESE,119,4.0,5.0,49,0.00,,,0.00,WeatherCatV1.21B27,2013-12-13 03:06:00,
2013-12-12 22:11:00,58.5,38.3,30.28,NE,52,0.0,6.0,47,0.00,,,0.00,WeatherCatV1.21B27,2013-12-13 03:11:00,
2013-12-12 22:16:00,58.4,38.2,30.28,NW,325,0.0,4.0,47,0.00,,,0.00,WeatherCatV1.21B27,2013-12-13 03:16:00,
2013-12-12 22:21:00,58.2,36.4,30.28,SE,135,6.0,6.0,44,0.00,,,0.00,WeatherCatV1.21B27,2013-12-13 03:21:00,
2013-12-12 22:26:00,58.2,35.2,30.28,East,96,2.0,7.0,42,0.00,,,0.00,WeatherCatV1.21B27,2013-12-13 03:26:00,
2013-12-12 22:31:00,58.3,35.3,30.29,NNE,23,2.0,3.0,42,0.00,,,0.00,WeatherCatV1.21B27,2013-12-13 03:31:00,
2013-12-12 22:36:00,58.2,35.2,30.29,NNE,31,1.0,6.0,42,0.00,,,0.00,WeatherCatV1.21B27,2013-12-13 03:36:00,
2013-12-12 22:42:00,58.1,34.5,30.28,ENE,62,0.0,9.0,41,0.00,,,0.00,WeatherCatV1.21B27,2013-12-13 03:42:00,
2013-12-12 22:47:00,57.9,34.3,30.29,NNW,342,4.0,8.0,41,0.00,,,0.00,WeatherCatV1.21B27,2013-12-13 03:47:00,
2013-12-12 22:52:00,57.8,33.6,30.29,ENE,71,0.0,4.0,40,0.00,,,0.00,WeatherCatV1.21B27,2013-12-13 03:52:00,
2013-12-12 22:59:00,57.6,34.1,30.29,NNE,19,1.0,5.0,41,0.00,,,0.00,WeatherCatV1.21B27,2013-12-13 03:59:00,
2013-12-12 23:06:00,57.5,34.0,30.28,ENE,67,2.0,5.0,41,0.00,,,0.00,WeatherCatV1.21B27,2013-12-13 04:06:00,
2013-12-12 23:12:00,57.3,33.2,30.29,NNE,20,4.0,7.0,40,0.00,,,0.00,WeatherCatV1.21B27,2013-12-13 04:12:00,
2013-12-12 23:17:00,57.2,33.7,30.28,NE,36,1.0,8.0,41,0.00,,,0.00,WeatherCatV1.21B27,2013-12-13 04:17:00,
2013-12-12 23:22:00,57.1,34.2,30.28,ENE,69,4.0,8.0,42,0.00,,,0.00,WeatherCatV1.21B27,2013-12-13 04:22:00,
2013-12-12 23:27:00,56.9,34.0,30.28,NNE,13,0.0,7.0,42,0.00,,,0.00,WeatherCatV1.21B27,2013-12-13 04:27:00,
2013-12-12 23:32:00,56.8,34.5,30.28,North,0,0.0,4.0,43,0.00,,,0.00,WeatherCatV1.21B27,2013-12-13 04:32:00,
2013-12-12 23:37:00,56.7,34.5,30.28,SE,132,4.0,8.0,43,0.00,,,0.00,WeatherCatV1.21B27,2013-12-13 04:37:00,
2013-12-12 23:42:00,56.6,34.9,30.27,North,355,1.0,5.0,44,0.00,,,0.00,WeatherCatV1.21B27,2013-12-13 04:42:00,
2013-12-12 23:47:00,56.4,34.8,30.27,NE,36,0.0,6.0,44,0.00,,,0.00,WeatherCatV1.21B27,2013-12-13 04:47:00,
2013-12-12 23:52:00,56.3,35.8,30.27,North,349,3.0,5.0,46,0.00,,,0.00,WeatherCatV1.21B27,2013-12-13 04:52:00,
2013-12-12 23:57:00,56.1,35.0,30.27,NNE,24,4.0,8.0,45,0.00,,,0.00,WeatherCatV1.21B27,2013-12-13 04:57:00,